Val-d'Or Airport
CYVO : now visible

Airfield :











YOU CAN JOIN US ON...

 
LOGIN :

Register | Disclaimer

   EN    FR    IT 

 









Legend :    VFR   Marginal VFR   IFR   Intensive IFR   Very Intensive IFR
Visi :
Ceiling :
>= 8 km
>= 3000ft
5 to 8 km
1000 to 3000 ft
1500m to 5 km
500 to 1000 ft
800 to 1500m
200 to 500 ft
< 800m
< 200 ft
Symbols :   Thunderstorms  Fog  Heavy snow  Heavy precipitations  Wind > 20 kt






- Airport Elevation : 1107 ft
- IATA code : YVO


CYVO - Val-d'Or

CURRENT METAR :
  • 211600Z 10004KT 2 1/2SM -DZ BR OVC005 01/01 A2987 RMK ST8 SLP138

EXPIRED METARs :
  • 211500Z 09005KT 4SM -SN BKN007 OVC012 01/00 A2989 RMK SF5SC3 SLP144
  • 211417Z 09008KT 060V130 4SM -SN BKN005 OVC011 00/00 A2992 RMK SF5SC3 SLP152
  • 211400Z 08007KT 2 1/2SM R18/5500VP6000FT/U -SN BKN004 OVC009 00/00 A2991 RMK SF5SC3 SLP150
  • 211343Z 07010G16KT 1 1/2SM -SN VV004 00/00 A2991 RMK SN8 PRESFR SLP151

TAF AMD TAF CYVO
Valid from the 21 at 15:00 until the 22 at 00:00 UTC


211513Z 2115/2124 09005KT 2SM -SN OVC005
TEMPO 2115/2118 P6SM -RASN SCT005 OVC012
BECMG 2116/2118 VRB03KT
FM211800 VRB03KT 3SM -RA BR OVC007
TEMPO 2118/2121 P6SM -RA SCT007 OVC015
FM212100 26008KT 4SM -DZ -RA BR OVC012 RMK NXT FCST BY 211800Z
CZUL FIR / North America



MET'MAP, your aeronautical weather chart ! - Copyright ORBIFLY December 2007 - Disclaimer

ORBIFLY MET'MAP TEAM :

Programming & Development : Alexandra Zaïnal
Concept & original design : Baudouin d'Aumeries
Assistance for programming : Marc-Olivier Méhu
Technical & hardware support : Manuel Goepfert

Contact : metmap@orbifly.com




SOURCES & CREDITS :

   NOAA       Earth
Advisory